Time;durP1;ratioP1;P1;durP2;ratioP2;P2;SDS_P1;SDS_P2;PMS_P1;PMS_P2;Temp;Humidity;BMP_temperature;BMP_pressure;BME280_temperature;BME280_humidity;BME280_pressure;Samples;Min_cycle;Max_cycle;Signal;HPM_P1;HPM_P2
2022/09/23 00:01:49;;;;;;;22.52;13.20;;;;;;;17.74;48.76;101856.97;5029054;28;20045;-72
2022/09/23 00:04:14;;;;;;;17.80;13.70;;;;;;;17.70;48.85;101861.25;5028711;28;20080;-71
2022/09/23 00:06:40;;;;;;;17.30;13.38;;;;;;;17.63;49.40;101864.13;5030684;28;20045;-71
2022/09/23 00:09:05;;;;;;;17.30;14.18;;;;;;;17.53;49.25;101858.53;5032341;28;20037;-71
2022/09/23 00:11:31;;;;;;;25.75;15.30;;;;;;;17.48;49.05;101861.13;5033128;28;20038;-71
2022/09/23 00:13:58;;;;;;;17.10;13.60;;;;;;;17.47;49.40;101857.56;5032521;28;20041;-72
2022/09/23 00:16:29;;;;;;;21.13;15.30;;;;;;;17.50;49.33;101859.03;5032597;28;20040;-71
2022/09/23 00:18:55;;;;;;;17.38;14.15;;;;;;;17.50;49.40;101859.84;5032190;28;20041;-73
2022/09/23 00:21:21;;;;;;;18.85;15.65;;;;;;;17.31;49.91;101860.28;5032848;28;20275;-73
2022/09/23 00:23:47;;;;;;;20.70;14.63;;;;;;;17.33;49.65;101858.16;5032499;28;20026;-75
2022/09/23 00:26:17;;;;;;;22.00;14.57;;;;;;;17.35;49.45;101856.84;5032868;28;20037;-74
2022/09/23 00:28:42;;;;;;;18.42;14.32;;;;;;;17.48;49.54;101852.97;5028158;28;20323;-73
2022/09/23 00:31:12;;;;;;;18.20;14.77;;;;;;;17.35;49.92;101847.88;5032023;28;20041;-73
2022/09/23 00:33:38;;;;;;;21.65;15.85;;;;;;;17.32;50.26;101846.47;5032226;28;20030;-74
2022/09/23 00:36:06;;;;;;;19.17;15.25;;;;;;;17.33;50.51;101852.72;5032709;28;20041;-74
2022/09/23 00:38:32;;;;;;;18.33;15.35;;;;;;;17.46;50.02;101852.41;5031459;28;20486;-74
2022/09/23 00:40:59;;;;;;;22.90;15.32;;;;;;;17.50;50.01;101848.97;5032138;28;20030;-75
2022/09/23 00:43:41;;;;;;;20.40;15.07;;;;;;;17.55;50.28;101843.63;5032146;28;20018;-74
2022/09/23 00:46:09;;;;;;;18.15;15.23;;;;;;;17.54;50.52;101846.59;5027951;28;20038;-75
2022/09/23 00:48:38;;;;;;;20.05;16.38;;;;;;;17.59;50.20;101851.28;5032294;28;20042;-73
2022/09/23 00:51:05;;;;;;;21.05;15.10;;;;;;;17.61;50.12;101841.81;5031810;28;20041;-74
2022/09/23 00:53:31;;;;;;;20.80;16.55;;;;;;;17.62;50.62;101842.63;5032156;28;20042;-74
2022/09/23 00:56:01;;;;;;;19.60;15.75;;;;;;;17.66;50.35;101835.63;5031270;28;20032;-73
2022/09/23 00:58:31;;;;;;;19.85;16.17;;;;;;;17.65;50.59;101837.50;5031999;28;20056;-75
2022/09/23 01:01:02;;;;;;;19.13;16.08;;;;;;;17.64;50.35;101841.31;5031372;28;20501;-73
2022/09/23 01:03:28;;;;;;;21.40;16.52;;;;;;;17.58;50.57;101845.03;5030504;28;20033;-72
2022/09/23 01:05:54;;;;;;;27.77;17.48;;;;;;;17.65;50.26;101840.25;5031238;28;20531;-73
2022/09/23 01:08:22;;;;;;;19.50;14.63;;;;;;;17.53;50.07;101845.75;5031375;28;20036;-74
2022/09/23 01:11:16;;;;;;;21.15;15.55;;;;;;;17.53;49.99;101839.53;5031944;28;20116;-74
2022/09/23 01:13:56;;;;;;;23.38;16.65;;;;;;;17.51;50.44;101837.03;5031257;28;20529;-73
2022/09/23 01:16:46;;;;;;;22.83;17.33;;;;;;;17.52;49.70;101829.69;5031360;28;20072;-74
2022/09/23 01:19:55;;;;;;;18.30;15.23;;;;;;;17.50;50.43;101842.72;5030079;28;20033;-75
2022/09/23 01:22:38;;;;;;;18.90;16.23;;;;;;;17.50;50.67;101832.66;5006203;28;20045;-74
2022/09/23 01:25:07;;;;;;;19.10;16.85;;;;;;;17.48;50.16;101826.66;5008377;28;20180;-74
2022/09/23 01:27:51;;;;;;;19.80;17.42;;;;;;;17.61;50.40;101824.69;5008523;28;20038;-74
2022/09/23 01:30:44;;;;;;;19.17;16.45;;;;;;;17.53;50.01;101815.06;5005309;28;20038;-74
2022/09/23 01:33:32;;;;;;;22.65;16.98;;;;;;;17.43;49.79;101817.56;5008195;28;20042;-73
2022/09/23 01:36:22;;;;;;;25.02;16.88;;;;;;;17.51;50.21;101812.56;5008181;28;20081;-74
2022/09/23 01:39:02;;;;;;;23.50;17.63;;;;;;;17.65;49.77;101806.81;5008335;28;20070;-75
2022/09/23 01:41:51;;;;;;;22.08;17.25;;;;;;;17.61;49.93;101809.19;5004179;28;20447;-77
2022/09/23 01:44:42;;;;;;;22.25;16.35;;;;;;;17.57;49.66;101797.19;4988180;28;20069;-73
2022/09/23 01:47:20;;;;;;;19.73;17.00;;;;;;;17.58;49.38;101795.28;5007873;28;20041;-75
2022/09/23 01:49:59;;;;;;;28.70;17.77;;;;;;;17.60;49.68;101799.41;5008614;28;20030;-69
2022/09/23 01:52:39;;;;;;;18.40;15.48;;;;;;;17.59;49.88;101795.03;4991789;28;20041;-71
2022/09/23 01:55:17;;;;;;;20.88;15.98;;;;;;;17.44;48.99;101794.75;5007968;28;20048;-72
2022/09/23 01:57:54;;;;;;;21.15;16.55;;;;;;;17.48;49.56;101801.34;5016694;28;20045;-71
2022/09/23 02:00:22;;;;;;;20.90;17.90;;;;;;;17.44;49.83;101798.28;5030783;28;20489;-72
2022/09/23 02:02:48;;;;;;;18.73;16.23;;;;;;;17.40;49.86;101785.44;5030960;28;20611;-72
2022/09/23 02:05:43;;;;;;;20.23;17.48;;;;;;;17.34;50.20;101791.88;5030306;28;20033;-70
2022/09/23 02:08:26;;;;;;;20.05;17.48;;;;;;;17.32;50.22;101794.84;5025566;28;20515;-71
2022/09/23 02:10:57;;;;;;;23.33;17.42;;;;;;;17.32;49.96;101789.41;5027176;28;20028;-69
2022/09/23 02:13:31;;;;;;;18.40;16.45;;;;;;;17.27;49.33;101783.06;5025788;28;20041;-71
2022/09/23 02:16:02;;;;;;;18.65;16.58;;;;;;;17.25;49.77;101779.78;5030016;28;20769;-71
2022/09/23 02:18:32;;;;;;;21.23;18.70;;;;;;;17.31;49.92;101779.63;5030257;28;20370;-71
2022/09/23 02:21:02;;;;;;;20.35;18.13;;;;;;;17.23;50.30;101774.59;5030300;28;20575;-71
2022/09/23 02:23:41;;;;;;;22.15;18.85;;;;;;;17.28;49.78;101777.38;5026130;28;20037;-70
2022/09/23 02:26:41;;;;;;;23.20;18.30;;;;;;;17.24;49.85;101767.25;5030833;28;20556;-71
2022/09/23 02:29:10;;;;;;;25.38;18.42;;;;;;;17.21;50.01;101770.47;5007458;28;20173;-72
2022/09/23 02:31:44;;;;;;;24.05;17.90;;;;;;;17.21;50.02;101765.03;5008013;28;20053;-71
2022/09/23 02:34:39;;;;;;;20.73;17.85;;;;;;;17.27;49.76;101767.59;5007913;28;20071;-70
2022/09/23 02:37:42;;;;;;;25.40;18.02;;;;;;;17.22;49.95;101764.78;5004983;28;20475;-71
2022/09/23 02:40:25;;;;;;;19.25;17.17;;;;;;;17.18;50.06;101762.78;4990326;28;20438;-70
2022/09/23 02:43:18;;;;;;;20.00;16.75;;;;;;;17.16;49.99;101762.25;5003014;28;20084;-69
2022/09/23 02:45:44;;;;;;;21.02;16.95;;;;;;;17.17;50.22;101762.00;5004441;28;20088;-70
2022/09/23 02:48:17;;;;;;;25.13;18.08;;;;;;;17.10;49.89;101760.50;5007459;28;20132;-70
2022/09/23 02:50:43;;;;;;;23.25;18.08;;;;;;;17.06;50.24;101753.91;5007168;28;20038;-71
2022/09/23 02:53:09;;;;;;;19.23;16.73;;;;;;;17.17;50.15;101753.84;5006862;28;20046;-70
2022/09/23 02:55:35;;;;;;;21.10;17.77;;;;;;;17.14;50.02;101754.31;5008006;28;20084;-70
2022/09/23 02:58:02;;;;;;;21.20;17.67;;;;;;;17.06;50.25;101743.84;5006597;28;20057;-72
2022/09/23 03:00:56;;;;;;;25.90;19.10;;;;;;;17.15;50.19;101733.41;5006949;28;20504;-72
2022/09/23 03:03:36;;;;;;;23.80;18.33;;;;;;;17.01;49.65;101732.91;4948350;29;20514;-72
2022/09/23 03:06:28;;;;;;;20.05;16.95;;;;;;;17.01;50.71;101732.91;4957384;28;20045;-71
2022/09/23 03:09:13;;;;;;;23.05;17.67;;;;;;;17.04;49.93;101729.69;4963479;28;20031;-72
2022/09/23 03:11:43;;;;;;;25.70;18.77;;;;;;;17.05;50.21;101723.22;4968655;28;20034;-70
2022/09/23 03:14:16;;;;;;;;;;;;;;;16.92;50.60;101728.97;4964647;28;20055;-69
2022/09/23 03:16:51;;;;;;;23.80;18.15;;;;;;;16.91;51.27;101723.75;4967739;28;20370;-69
2022/09/23 03:19:46;;;;;;;23.65;18.80;;;;;;;16.91;51.03;101718.34;4967859;28;20046;-71
2022/09/23 03:22:25;;;;;;;21.17;18.48;;;;;;;16.96;50.52;101718.44;4891842;29;20096;-70
2022/09/23 03:24:54;;;;;;;21.25;18.30;;;;;;;16.95;50.55;101717.59;4887811;29;20051;-71
2022/09/23 03:27:24;;;;;;;21.17;17.35;;;;;;;16.98;50.25;101714.38;4891398;29;20103;-70
2022/09/23 03:29:52;;;;;;;28.05;18.75;;;;;;;16.92;50.25;101720.00;4891315;29;20482;-70
2022/09/23 03:32:22;;;;;;;23.00;17.73;;;;;;;16.80;49.70;101719.22;4891606;29;20526;-72
2022/09/23 03:34:50;;;;;;;24.70;17.95;;;;;;;16.91;50.30;101712.91;4892207;29;20064;-70
2022/09/23 03:37:34;;;;;;;22.10;17.38;;;;;;;16.98;50.74;101710.88;4891113;29;20052;-71
2022/09/23 03:40:28;;;;;;;21.80;18.23;;;;;;;16.87;49.97;101723.44;4908136;29;20075;-71
2022/09/23 03:43:00;;;;;;;20.85;16.55;;;;;;;16.69;50.84;101721.75;4925245;29;20063;-71
2022/09/23 03:45:32;;;;;;;19.85;17.60;;;;;;;16.79;50.73;101718.41;4934081;29;20075;-70
2022/09/23 03:47:58;;;;;;;25.77;17.65;;;;;;;16.81;50.48;101720.88;4947837;28;20074;-70
2022/09/23 03:50:23;;;;;;;25.85;18.35;;;;;;;16.74;50.69;101712.06;4947844;28;20043;-70
2022/09/23 03:52:49;;;;;;;20.23;17.98;;;;;;;16.71;50.96;101707.94;4948905;29;20141;-71
2022/09/23 03:55:17;;;;;;;21.15;17.05;;;;;;;16.83;50.82;101707.88;4948127;28;20454;-71
2022/09/23 03:57:43;;;;;;;26.27;18.30;;;;;;;16.74;50.53;101707.47;4947926;28;20134;-70
2022/09/23 04:00:10;;;;;;;23.05;18.25;;;;;;;16.64;51.43;101704.56;5015079;28;20120;-70
2022/09/23 04:02:35;;;;;;;20.52;17.13;;;;;;;16.75;50.52;101702.84;5026437;28;20433;-69
2022/09/23 04:05:02;;;;;;;19.38;16.40;;;;;;;16.76;50.18;101701.78;5027682;28;20033;-70
2022/09/23 04:07:27;;;;;;;21.35;17.60;;;;;;;16.78;50.43;101697.78;5041762;28;20029;-70
2022/09/23 04:09:53;;;;;;;19.70;17.10;;;;;;;16.71;50.65;101691.66;5027548;28;20044;-71
2022/09/23 04:12:18;;;;;;;21.58;16.60;;;;;;;16.66;50.53;101688.88;5028569;28;20045;-70
2022/09/23 04:14:44;;;;;;;23.67;16.33;;;;;;;16.72;50.41;101682.47;5027818;28;20073;-70
2022/09/23 04:17:11;;;;;;;21.90;17.48;;;;;;;16.76;50.53;101693.66;5027564;28;20395;-70
2022/09/23 04:19:36;;;;;;;22.17;18.15;;;;;;;16.67;50.84;101694.03;5028888;28;20040;-71
2022/09/23 04:22:02;;;;;;;19.77;16.20;;;;;;;16.69;50.69;101683.75;5027816;28;20041;-71
2022/09/23 04:24:28;;;;;;;20.80;16.98;;;;;;;16.60;51.09;101687.97;5028376;28;20038;-71
2022/09/23 04:26:55;;;;;;;22.10;17.85;;;;;;;16.57;50.71;101688.44;5028693;28;20042;-71
2022/09/23 04:29:22;;;;;;;21.73;16.55;;;;;;;16.61;51.15;101689.59;5028495;28;20049;-72
2022/09/23 04:31:48;;;;;;;21.35;16.45;;;;;;;16.60;50.95;101689.84;5029309;28;20036;-69
2022/09/23 04:34:16;;;;;;;22.77;16.85;;;;;;;16.62;50.48;101698.56;5028862;28;20041;-71
2022/09/23 04:36:41;;;;;;;20.95;16.95;;;;;;;16.65;50.63;101700.78;5027951;28;20128;-71
2022/09/23 04:39:07;;;;;;;18.38;15.40;;;;;;;16.54;50.71;101694.34;5028063;28;20048;-71
2022/09/23 04:41:32;;;;;;;17.67;15.82;;;;;;;16.59;50.86;101702.59;5028748;28;20128;-74
2022/09/23 04:43:57;;;;;;;20.83;17.42;;;;;;;16.54;51.03;101697.06;5028209;28;20029;-73
2022/09/23 04:46:23;;;;;;;19.75;17.08;;;;;;;16.52;50.84;101696.50;5028768;28;20500;-72
2022/09/23 04:48:48;;;;;;;19.10;17.05;;;;;;;16.43;50.93;101697.09;5028446;28;20041;-75
2022/09/23 04:51:20;;;;;;;22.65;18.08;;;;;;;16.50;51.08;101692.38;5026419;28;20045;-74
2022/09/23 04:53:47;;;;;;;19.48;16.20;;;;;;;16.48;51.40;101692.63;5029530;28;20045;-75
2022/09/23 04:56:21;;;;;;;19.77;16.27;;;;;;;16.39;50.97;101691.31;5030215;28;20629;-73
2022/09/23 04:58:47;;;;;;;18.70;15.82;;;;;;;16.30;52.08;101694.66;5027420;28;20485;-74
2022/09/23 05:01:25;;;;;;;19.95;16.58;;;;;;;16.31;50.94;101686.28;5030808;28;20049;-75
2022/09/23 05:03:53;;;;;;;22.15;16.52;;;;;;;16.27;51.42;101682.44;5030677;28;20044;-73
2022/09/23 05:06:19;;;;;;;20.58;16.50;;;;;;;16.33;51.23;101686.06;5029657;28;20037;-75
2022/09/23 05:08:50;;;;;;;20.48;17.45;;;;;;;16.12;52.03;101684.00;5029483;28;20509;-74
2022/09/23 05:11:16;;;;;;;24.63;17.95;;;;;;;16.14;51.84;101681.84;5029318;28;20037;-74
2022/09/23 05:13:42;;;;;;;21.02;17.58;;;;;;;16.25;51.14;101687.28;5031364;28;20021;-72
2022/09/23 05:16:11;;;;;;;22.38;16.63;;;;;;;16.25;51.79;101681.84;5031454;28;20136;-73
2022/09/23 05:18:39;;;;;;;21.65;16.33;;;;;;;16.28;51.65;101686.78;5030823;28;20076;-74
2022/09/23 05:21:06;;;;;;;24.13;18.73;;;;;;;16.32;51.50;101687.94;5030997;28;20574;-73
2022/09/23 05:23:32;;;;;;;22.90;17.20;;;;;;;16.28;51.46;101680.50;5031396;28;20030;-74
2022/09/23 05:26:07;;;;;;;19.27;16.50;;;;;;;16.29;51.72;101680.28;5030960;28;20037;-76
2022/09/23 05:28:33;;;;;;;25.25;15.50;;;;;;;16.43;51.57;101681.63;5033406;28;20017;-74
2022/09/23 05:31:14;;;;;;;21.17;17.58;;;;;;;16.34;51.85;101674.13;5029698;28;20184;-73
2022/09/23 05:33:40;;;;;;;;;;;;;;;16.45;51.73;101676.78;5032201;28;20076;-72
2022/09/23 05:36:06;;;;;;;18.90;15.25;;;;;;;16.46;51.74;101673.00;5030623;28;20401;-72
2022/09/23 05:38:32;;;;;;;19.13;17.13;;;;;;;16.44;51.56;101679.75;5029861;28;20061;-73
2022/09/23 05:41:05;;;;;;;23.15;16.20;;;;;;;16.61;51.49;101683.34;5030724;28;20036;-74
2022/09/23 05:43:31;;;;;;;21.08;16.15;;;;;;;16.59;51.26;101689.00;5025675;28;20497;-74
2022/09/23 05:46:04;;;;;;;23.65;16.38;;;;;;;16.72;51.22;101685.19;5031116;28;20029;-74
2022/09/23 05:48:31;;;;;;;18.38;15.43;;;;;;;16.73;51.29;101688.72;5030587;28;20116;-75
2022/09/23 05:50:56;;;;;;;27.25;15.93;;;;;;;16.74;51.00;101691.19;5030889;28;20033;-74
2022/09/23 05:53:22;;;;;;;17.88;15.07;;;;;;;16.91;50.98;101686.59;5030596;28;20661;-74
2022/09/23 05:55:47;;;;;;;24.98;16.58;;;;;;;16.89;51.00;101688.72;5028858;28;20465;-74
2022/09/23 05:58:13;;;;;;;23.13;14.80;;;;;;;16.92;51.26;101684.69;5029508;28;20061;-73
2022/09/23 06:00:40;;;;;;;17.35;15.15;;;;;;;16.96;51.04;101685.84;5029814;28;20524;-74
2022/09/23 06:03:12;;;;;;;14.93;13.32;;;;;;;16.91;51.43;101683.03;5029190;28;20048;-73
2022/09/23 06:05:37;;;;;;;17.08;14.25;;;;;;;17.00;51.06;101687.81;5026764;28;20044;-73
2022/09/23 06:08:02;;;;;;;16.17;12.90;;;;;;;17.15;51.22;101682.63;5028890;28;20490;-74
2022/09/23 06:10:28;;;;;;;17.25;13.85;;;;;;;17.17;51.02;101682.38;5030654;28;20087;-73
2022/09/23 06:12:53;;;;;;;13.75;12.35;;;;;;;17.16;51.05;101678.03;5029230;28;20025;-72
2022/09/23 06:15:19;;;;;;;14.82;12.40;;;;;;;17.17;51.34;101685.94;5029886;28;20049;-73
2022/09/23 06:17:45;;;;;;;14.18;12.63;;;;;;;17.08;51.01;101681.97;5029874;28;20046;-74
2022/09/23 06:20:10;;;;;;;18.70;13.23;;;;;;;17.18;51.41;101682.13;5030754;28;20493;-74
2022/09/23 06:22:36;;;;;;;15.00;12.52;;;;;;;17.24;51.00;101681.13;5030575;28;20031;-73
2022/09/23 06:25:02;;;;;;;13.85;12.20;;;;;;;17.30;50.65;101682.03;5030359;28;20033;-75
2022/09/23 06:27:28;;;;;;;19.08;11.40;;;;;;;17.39;50.91;101683.28;5030138;28;20193;-74
2022/09/23 06:29:53;;;;;;;14.45;12.15;;;;;;;17.49;50.74;101680.75;5029988;28;20041;-75
2022/09/23 06:32:19;;;;;;;13.23;11.25;;;;;;;17.44;50.34;101683.34;5030124;28;20048;-74
2022/09/23 06:34:44;;;;;;;13.80;11.07;;;;;;;17.53;50.44;101679.16;5030686;28;20505;-74
2022/09/23 06:37:10;;;;;;;14.50;11.95;;;;;;;17.59;50.48;101688.22;5029967;28;20034;-74
2022/09/23 06:39:36;;;;;;;14.10;11.50;;;;;;;17.70;50.80;101684.53;5028297;28;20033;-76
2022/09/23 06:42:02;;;;;;;17.35;11.90;;;;;;;17.75;50.61;101688.16;5030395;28;20048;-76
2022/09/23 06:44:27;;;;;;;18.58;11.50;;;;;;;17.85;50.31;101688.28;5026365;28;20086;-75
2022/09/23 06:46:53;;;;;;;13.98;12.32;;;;;;;17.79;50.14;101683.06;5030070;28;20029;-73
2022/09/23 06:49:20;;;;;;;12.95;11.60;;;;;;;17.70;50.29;101685.38;5029932;28;20064;-74
2022/09/23 06:51:45;;;;;;;15.50;11.77;;;;;;;17.86;50.39;101686.38;5028895;28;20140;-72
2022/09/23 06:54:10;;;;;;;15.35;10.40;;;;;;;18.03;49.79;101689.88;5031292;28;20044;-74
2022/09/23 06:56:37;;;;;;;18.20;12.18;;;;;;;17.90;50.21;101679.38;5030223;28;20044;-75
2022/09/23 06:59:02;;;;;;;20.00;11.75;;;;;;;18.01;49.64;101687.41;5031115;28;20118;-74
2022/09/23 07:01:27;;;;;;;14.40;11.80;;;;;;;18.04;49.60;101688.81;5031203;28;20033;-75
2022/09/23 07:03:53;;;;;;;15.43;11.07;;;;;;;18.10;49.16;101690.50;5030270;28;20041;-69
2022/09/23 07:06:18;;;;;;;18.92;11.02;;;;;;;18.32;49.24;101681.22;5029946;28;20393;-72
2022/09/23 07:08:50;;;;;;;13.07;10.10;;;;;;;18.26;48.96;101686.88;5029510;28;20415;-72
2022/09/23 07:11:18;;;;;;;13.98;10.48;;;;;;;18.38;49.39;101682.94;5029878;28;20060;-70
2022/09/23 07:13:43;;;;;;;15.07;11.35;;;;;;;18.39;49.00;101673.69;5029810;28;20032;-71
2022/09/23 07:16:10;;;;;;;12.32;10.85;;;;;;;18.57;48.84;101680.72;5028583;28;20038;-67
2022/09/23 07:18:36;;;;;;;14.27;11.65;;;;;;;18.52;48.60;101677.94;5029384;28;20038;-70
2022/09/23 07:21:12;;;;;;;12.35;11.05;;;;;;;18.80;48.64;101683.09;5030502;28;20048;-70
2022/09/23 07:23:37;;;;;;;12.10;10.15;;;;;;;18.85;48.25;101683.13;5029285;28;20056;-69
2022/09/23 07:26:04;;;;;;;14.80;10.98;;;;;;;18.80;48.18;101693.16;5029477;28;20037;-72
2022/09/23 07:28:29;;;;;;;13.15;9.82;;;;;;;18.72;47.97;101689.03;5029945;28;20025;-70
2022/09/23 07:30:55;;;;;;;16.58;10.32;;;;;;;19.01;47.66;101682.19;5029053;28;20144;-71
2022/09/23 07:33:20;;;;;;;16.40;10.02;;;;;;;19.16;47.54;101687.75;5028975;28;20032;-71
2022/09/23 07:35:46;;;;;;;17.67;10.20;;;;;;;19.27;47.51;101683.19;5029389;28;21486;-71
2022/09/23 07:38:11;;;;;;;13.57;9.75;;;;;;;19.30;47.28;101679.97;5028158;28;20115;-70
2022/09/23 07:40:38;;;;;;;13.63;10.80;;;;;;;19.48;47.25;101676.81;5029760;28;20025;-73
2022/09/23 07:43:07;;;;;;;14.43;11.18;;;;;;;19.37;47.27;101679.75;5029529;28;20029;-72
2022/09/23 07:45:33;;;;;;;21.38;10.60;;;;;;;19.49;47.15;101686.66;5029258;28;20025;-70
2022/09/23 07:47:59;;;;;;;14.50;10.48;;;;;;;19.48;47.27;101679.53;5029653;28;20087;-74
2022/09/23 07:50:25;;;;;;;14.88;9.65;;;;;;;19.66;46.70;101681.84;5029207;28;20118;-74
2022/09/23 07:52:51;;;;;;;11.73;10.07;;;;;;;19.69;46.69;101678.59;5030041;28;20049;-73
2022/09/23 07:55:18;;;;;;;14.65;9.93;;;;;;;19.79;46.71;101675.88;5028201;28;20124;-74
2022/09/23 07:57:43;;;;;;;10.57;9.38;;;;;;;20.01;46.65;101682.00;5029194;28;20045;-76
2022/09/23 08:00:09;;;;;;;15.60;10.23;;;;;;;19.94;46.86;101675.97;5028024;28;20033;-75
2022/09/23 08:02:35;;;;;;;14.95;9.55;;;;;;;19.98;46.71;101676.25;5029620;28;20034;-75
2022/09/23 08:05:02;;;;;;;12.32;10.55;;;;;;;19.45;47.88;101684.72;5029391;28;20441;-74
2022/09/23 08:07:27;;;;;;;17.45;10.20;;;;;;;19.89;46.85;101683.31;5029624;28;20136;-72
2022/09/23 08:09:53;;;;;;;13.88;10.52;;;;;;;20.24;46.18;101672.56;5027571;28;20038;-76
2022/09/23 08:12:18;;;;;;;11.50;9.63;;;;;;;20.29;46.38;101671.72;5029258;28;20034;-75
2022/09/23 08:14:43;;;;;;;13.88;9.50;;;;;;;20.42;45.83;101672.03;5029081;28;20112;-73
2022/09/23 08:17:11;;;;;;;14.95;10.02;;;;;;;20.39;45.87;101667.13;5030380;28;20735;-75
2022/09/23 08:19:37;;;;;;;11.52;9.27;;;;;;;20.44;46.08;101674.53;5028256;28;20084;-74
2022/09/23 08:22:02;;;;;;;18.30;9.73;;;;;;;20.75;45.58;101670.72;5033010;28;20041;-76
2022/09/23 08:24:31;;;;;;;14.93;9.73;;;;;;;20.76;45.41;101675.91;5027089;28;20493;-75
2022/09/23 08:26:56;;;;;;;10.27;9.27;;;;;;;20.93;44.85;101672.94;5024709;28;20926;-76
2022/09/23 08:29:23;;;;;;;12.65;9.95;;;;;;;20.39;45.93;101677.22;5029841;28;20056;-74
2022/09/23 08:31:50;;;;;;;13.30;9.80;;;;;;;20.95;45.11;101674.28;5029951;28;20030;-76
2022/09/23 08:34:17;;;;;;;11.70;9.52;;;;;;;20.46;46.39;101677.81;5042895;28;20404;-74
2022/09/23 08:36:43;;;;;;;10.10;8.55;;;;;;;20.98;44.93;101673.75;5040379;28;20029;-75
2022/09/23 08:39:12;;;;;;;17.15;9.50;;;;;;;21.12;45.42;101679.50;5038402;28;20037;-75
2022/09/23 08:42:02;;;;;;;13.68;9.15;;;;;;;21.51;44.46;101674.22;5031725;28;21090;-75
2022/09/23 08:44:45;;;;;;;12.07;9.30;;;;;;;21.61;44.49;101674.22;5032466;28;20386;-75
2022/09/23 08:47:11;;;;;;;11.85;8.45;;;;;;;21.52;44.48;101673.94;5027686;28;20429;-77
2022/09/23 08:49:48;;;;;;;12.85;8.75;;;;;;;22.05;43.54;101675.19;5032387;28;20041;-75
2022/09/23 08:52:38;;;;;;;13.55;8.57;;;;;;;22.09;43.16;101670.78;5030547;28;20434;-76
2022/09/23 08:55:04;;;;;;;16.75;8.73;;;;;;;22.24;43.02;101678.91;5028987;28;20576;-75
2022/09/23 08:57:44;;;;;;;12.88;9.18;;;;;;;22.26;42.74;101673.16;5029207;28;20026;-76
2022/09/23 09:00:20;;;;;;;10.23;8.23;;;;;;;22.06;43.02;101671.31;5028423;28;20209;-75
2022/09/23 09:02:47;;;;;;;13.00;8.85;;;;;;;22.73;42.24;101667.94;5026104;28;20109;-76
2022/09/23 09:05:21;;;;;;;12.75;8.80;;;;;;;22.53;42.74;101665.28;5030508;28;20033;-74
2022/09/23 09:07:48;;;;;;;19.08;9.20;;;;;;;22.96;42.06;101675.41;5031208;28;20422;-76
2022/09/23 09:10:19;;;;;;;16.02;8.63;;;;;;;22.93;42.21;101669.69;5038980;28;20037;-75
2022/09/23 09:12:48;;;;;;;11.57;8.50;;;;;;;23.04;41.83;101671.22;5029097;28;20489;-75
2022/09/23 09:15:22;;;;;;;16.92;8.32;;;;;;;23.15;41.01;101668.13;5031098;28;20060;-76
2022/09/23 09:18:05;;;;;;;9.90;7.03;;;;;;;23.37;41.03;101670.41;5023285;28;20045;-76
2022/09/23 09:20:37;;;;;;;13.13;7.38;;;;;;;23.42;40.54;101664.84;5024913;28;20540;-75
2022/09/23 09:23:22;;;;;;;10.23;7.60;;;;;;;23.57;40.60;101661.94;5026844;28;20037;-76
2022/09/23 09:25:52;;;;;;;12.10;8.07;;;;;;;23.47;40.76;101664.78;5027997;28;20092;-75
2022/09/23 09:28:23;;;;;;;15.13;7.90;;;;;;;23.33;41.29;101658.38;5036066;28;20029;-73
2022/09/23 09:30:55;;;;;;;;;;;;;;;23.87;40.65;101650.59;5040697;28;20037;-75
2022/09/23 09:33:29;;;;;;;13.88;7.88;;;;;;;23.95;40.50;101651.88;5042635;28;20303;-76
2022/09/23 09:36:12;;;;;;;12.75;8.68;;;;;;;24.00;39.99;101643.59;5038039;28;20045;-75
2022/09/23 09:38:38;;;;;;;15.18;7.80;;;;;;;24.24;39.23;101652.59;5034564;28;20033;-75
2022/09/23 09:41:14;;;;;;;15.23;8.00;;;;;;;23.93;40.07;101643.94;5041056;28;20038;-75
2022/09/23 09:43:42;;;;;;;8.82;7.47;;;;;;;24.03;39.67;101646.59;5036703;28;20052;-75
2022/09/23 09:46:38;;;;;;;9.82;7.18;;;;;;;24.26;39.33;101653.13;4971244;28;20101;-74
2022/09/23 09:49:21;;;;;;;9.35;7.78;;;;;;;23.89;39.29;101645.63;4975364;28;20047;-75
2022/09/23 09:51:47;;;;;;;11.20;7.55;;;;;;;24.26;39.61;101645.69;4983088;28;20141;-75
2022/09/23 09:54:23;;;;;;;9.65;7.10;;;;;;;24.47;39.66;101635.22;4980793;28;20035;-75
2022/09/23 09:56:50;;;;;;;10.90;7.03;;;;;;;24.55;39.36;101640.03;4979909;28;20087;-76
2022/09/23 09:59:22;;;;;;;9.32;7.32;;;;;;;24.46;39.12;101630.84;4968033;28;20041;-75
2022/09/23 10:01:47;;;;;;;11.77;7.20;;;;;;;24.59;38.99;101627.31;4965419;28;20097;-77
2022/09/23 10:04:20;;;;;;;13.38;7.32;;;;;;;24.90;38.25;101631.22;4966854;28;20440;-76
2022/09/23 10:07:13;;;;;;;10.48;7.20;;;;;;;25.10;38.02;101632.84;4966772;28;20046;-76
2022/09/23 10:09:47;;;;;;;12.25;7.40;;;;;;;24.13;38.99;101624.47;4967268;28;20041;-75
2022/09/23 10:12:17;;;;;;;11.98;7.57;;;;;;;24.04;40.00;101631.72;4967217;28;20046;-77
2022/09/23 10:14:44;;;;;;;13.90;7.80;;;;;;;24.21;39.47;101626.56;4968777;28;20046;-75
2022/09/23 10:17:39;;;;;;;9.20;6.82;;;;;;;24.58;39.65;101624.88;4966992;28;20042;-77
2022/09/23 10:20:08;;;;;;;10.07;6.90;;;;;;;24.70;38.95;101628.81;4946167;28;20043;-76
2022/09/23 10:22:41;;;;;;;10.40;7.50;;;;;;;24.44;39.44;101619.34;4946041;29;20593;-76
2022/09/23 10:25:20;;;;;;;10.25;6.93;;;;;;;24.53;39.29;101619.47;4963521;28;20070;-76
2022/09/23 10:27:46;;;;;;;10.07;7.20;;;;;;;24.76;39.16;101611.16;4950481;28;20050;-78
2022/09/23 10:30:14;;;;;;;12.88;7.18;;;;;;;24.68;38.89;101616.47;4981835;28;20076;-78
2022/09/23 10:32:43;;;;;;;10.25;7.13;;;;;;;24.91;38.17;101615.56;4966521;28;20037;-76
2022/09/23 10:35:10;;;;;;;9.30;6.95;;;;;;;25.02;39.01;101617.81;4961487;28;20082;-79
2022/09/23 10:37:54;;;;;;;11.20;6.10;;;;;;;25.26;37.91;101621.22;4967201;28;20487;-77
2022/09/23 10:46:46;;;;;;;11.38;6.78;;;;;;;25.24;37.93;101622.63;4937836;29;20142;-79
2022/09/23 10:49:26;;;;;;;9.93;6.47;;;;;;;25.44;38.13;101619.53;4947641;29;20050;-77
2022/09/23 10:51:57;;;;;;;9.07;6.03;;;;;;;25.07;37.86;101626.00;4933041;28;20138;-81
2022/09/23 10:54:42;;;;;;;9.15;6.45;;;;;;;25.58;37.15;101612.09;4930773;29;20043;-78
2022/09/23 10:57:41;;;;;;;11.20;6.45;;;;;;;25.45;37.60;101618.44;4956327;28;20619;-79
2022/09/23 11:00:28;;;;;;;11.60;6.70;;;;;;;25.42;38.45;101620.94;4961584;28;20112;-79
2022/09/23 11:03:24;;;;;;;9.75;6.00;;;;;;;25.89;36.50;101612.25;4963666;28;20035;-78
2022/09/23 11:06:31;;;;;;;10.60;6.10;;;;;;;26.08;35.84;101619.28;4972887;28;20474;-78
2022/09/23 11:09:14;;;;;;;11.70;5.82;;;;;;;25.99;36.38;101612.84;4902009;29;20044;-78
2022/09/23 11:12:07;;;;;;;13.18;6.47;;;;;;;26.35;35.83;101607.38;4908467;29;20043;-78
2022/09/23 11:14:50;;;;;;;9.20;5.45;;;;;;;26.19;36.00;101600.59;4903284;29;20063;-77
2022/09/23 11:17:38;;;;;;;9.07;6.50;;;;;;;26.27;35.12;101599.03;4903947;29;20083;-77
2022/09/23 11:20:22;;;;;;;8.15;6.00;;;;;;;25.83;36.29;101603.28;4905843;29;20088;-78
2022/09/23 11:22:56;;;;;;;12.93;6.43;;;;;;;25.89;35.43;101602.06;4907556;29;20140;-79
2022/09/23 11:25:52;;;;;;;11.25;6.15;;;;;;;25.81;36.02;101596.47;4902890;29;20652;-78
2022/09/23 11:28:47;;;;;;;8.90;6.05;;;;;;;25.60;36.68;101596.09;4902850;29;20059;-77
2022/09/23 11:31:40;;;;;;;12.15;6.75;;;;;;;25.68;36.76;101589.03;4888134;29;20079;-76
2022/09/23 11:34:25;;;;;;;9.90;6.60;;;;;;;25.95;36.62;101591.75;4902629;29;20047;-78
2022/09/23 11:37:02;;;;;;;11.07;6.15;;;;;;;25.54;36.93;101588.22;4902624;29;20043;-79
2022/09/23 11:39:36;;;;;;;10.98;7.00;;;;;;;25.31;37.46;101583.72;4903581;29;20189;-80
2022/09/23 11:42:02;;;;;;;14.95;6.85;;;;;;;25.07;37.83;101592.16;4904044;29;20071;-77